Time;durP1;ratioP1;P1;durP2;ratioP2;P2;SDS_P1;SDS_P2;PMS_P1;PMS_P2;Temp;Humidity;BMP_temperature;BMP_pressure;BME280_temperature;BME280_humidity;BME280_pressure;Samples;Min_cycle;Max_cycle;Signal;HPM_P1;HPM_P2
2023/10/03 00:00:56;;;;;;;28.63;14.60;;;;;;;19.80;65.40;100992.38;5077821;27;20043;-66
2023/10/03 00:03:25;;;;;;;27.48;14.70;;;;;;;19.80;65.49;100991.56;5067784;27;20049;-65
2023/10/03 00:05:54;;;;;;;29.70;14.82;;;;;;;19.79;65.51;100992.66;5060172;27;20482;-65
2023/10/03 00:08:24;;;;;;;29.58;15.05;;;;;;;19.75;65.60;100980.69;5071323;27;20079;-65
2023/10/03 00:10:54;;;;;;;31.55;14.35;;;;;;;19.79;65.49;100984.47;5066956;27;20070;-65
2023/10/03 00:13:22;;;;;;;29.00;13.85;;;;;;;19.76;65.55;100977.66;5079773;27;20061;-65
2023/10/03 00:15:51;;;;;;;34.22;15.95;;;;;;;19.76;65.68;100965.94;5067117;27;20041;-65
2023/10/03 00:18:19;;;;;;;28.63;15.40;;;;;;;19.76;65.50;100968.66;5064112;27;20060;-65
2023/10/03 00:20:48;;;;;;;28.88;15.00;;;;;;;19.76;65.48;100971.41;5095291;27;20541;-65
2023/10/03 00:23:16;;;;;;;30.02;15.75;;;;;;;19.75;65.58;100967.03;5109323;27;20045;-65
2023/10/03 00:25:44;;;;;;;26.52;14.13;;;;;;;19.74;65.64;100960.78;5075811;27;20105;-65
2023/10/03 00:28:12;;;;;;;27.20;14.15;;;;;;;19.73;65.49;100961.88;5106849;27;20039;-65
2023/10/03 00:30:40;;;;;;;31.17;15.70;;;;;;;19.72;65.50;100953.97;5074924;27;20046;-65
2023/10/03 00:33:12;;;;;;;28.45;14.75;;;;;;;19.71;65.57;100949.59;5067848;27;20045;-65
2023/10/03 00:35:41;;;;;;;31.13;15.30;;;;;;;19.72;65.48;100946.59;5059308;27;20057;-65
2023/10/03 00:38:13;;;;;;;26.48;14.25;;;;;;;19.71;65.39;100942.25;5065420;27;20048;-65
2023/10/03 00:40:49;;;;;;;28.95;15.13;;;;;;;19.70;65.65;100937.06;5065760;27;20056;-65
2023/10/03 00:43:17;;;;;;;26.08;14.82;;;;;;;19.69;65.55;100935.44;5094031;27;20060;-65
2023/10/03 00:45:48;;;;;;;27.98;14.45;;;;;;;19.68;65.57;100926.44;5082628;27;20087;-65
2023/10/03 00:48:18;;;;;;;34.42;16.55;;;;;;;19.67;65.68;100924.81;5085661;27;20110;-65
2023/10/03 00:50:48;;;;;;;24.70;14.02;;;;;;;19.59;65.60;100898.13;5091286;27;20049;-65
2023/10/03 00:53:16;;;;;;;32.35;15.73;;;;;;;19.65;65.58;100905.19;5095373;27;20041;-65
2023/10/03 00:55:47;;;;;;;30.40;16.30;;;;;;;19.64;65.63;100897.28;5096102;27;20198;-65
2023/10/03 00:58:28;;;;;;;32.47;15.45;;;;;;;19.63;65.65;100896.47;5102451;27;20063;-65
2023/10/03 01:00:57;;;;;;;31.38;15.98;;;;;;;19.62;65.78;100883.13;5082766;27;20059;-65
2023/10/03 01:03:30;;;;;;;32.63;15.32;;;;;;;19.61;65.71;100879.59;5117808;27;20046;-65
2023/10/03 01:06:04;;;;;;;30.98;15.85;;;;;;;19.60;65.72;100879.84;5085011;27;20045;-64
2023/10/03 01:08:36;;;;;;;29.23;15.27;;;;;;;19.59;65.73;100870.06;5066828;27;20056;-65
2023/10/03 01:11:05;;;;;;;28.52;14.73;;;;;;;19.58;65.77;100866.50;5081766;27;20039;-65
2023/10/03 01:13:33;;;;;;;31.67;15.70;;;;;;;19.58;65.87;100865.69;5068822;27;20050;-65
2023/10/03 01:16:03;;;;;;;31.20;15.55;;;;;;;19.58;65.74;100860.25;5069204;27;20052;-64
2023/10/03 01:18:32;;;;;;;31.33;15.65;;;;;;;19.50;65.69;100847.97;5068609;27;20080;-64
2023/10/03 01:21:05;;;;;;;33.90;15.95;;;;;;;19.55;65.82;100848.00;5060792;27;20073;-65
2023/10/03 01:23:36;;;;;;;32.90;15.40;;;;;;;19.55;65.83;100850.72;5060159;27;20053;-65
2023/10/03 01:26:05;;;;;;;33.55;16.85;;;;;;;19.54;65.74;100843.63;5069864;27;20039;-66
2023/10/03 01:28:33;;;;;;;29.58;15.20;;;;;;;19.54;65.86;100843.63;5074772;27;20059;-65
2023/10/03 01:31:01;;;;;;;29.77;15.10;;;;;;;19.54;65.75;100840.09;5066476;27;20057;-65
2023/10/03 01:33:32;;;;;;;27.25;14.60;;;;;;;19.52;65.70;100834.09;5067896;27;20044;-65
2023/10/03 01:36:01;;;;;;;32.50;15.98;;;;;;;19.52;65.64;100834.09;5081879;27;20081;-65
2023/10/03 01:38:29;;;;;;;32.20;15.93;;;;;;;19.52;65.80;100842.28;5063662;27;20482;-64
2023/10/03 01:41:00;;;;;;;29.90;14.88;;;;;;;19.50;65.59;100834.34;5061106;27;20041;-65
2023/10/03 01:43:28;;;;;;;28.85;14.48;;;;;;;19.35;65.66;100799.81;5092013;27;20109;-65
2023/10/03 01:45:56;;;;;;;27.10;14.20;;;;;;;19.50;65.63;100820.72;5072473;27;20098;-64
2023/10/03 01:48:25;;;;;;;29.20;14.85;;;;;;;19.49;65.60;100819.91;5058903;27;20041;-65
2023/10/03 01:50:53;;;;;;;30.92;14.60;;;;;;;19.48;65.69;100845.53;5073029;27;20045;-65
2023/10/03 01:53:20;;;;;;;31.05;15.60;;;;;;;19.49;65.68;100830.81;5080705;27;20049;-65
2023/10/03 01:55:49;;;;;;;27.45;14.88;;;;;;;19.49;65.67;100824.53;5067143;27;20116;-65
2023/10/03 01:58:21;;;;;;;30.42;15.40;;;;;;;19.48;65.48;100829.19;5065644;27;20052;-64
2023/10/03 02:00:50;;;;;;;30.77;16.08;;;;;;;19.49;65.46;100825.34;5099895;27;20059;-64
2023/10/03 02:03:18;;;;;;;28.95;14.95;;;;;;;19.48;65.38;100820.19;5097499;27;20447;-65
2023/10/03 02:05:48;;;;;;;30.30;14.35;;;;;;;19.37;65.54;100802.28;5077386;27;20045;-64
2023/10/03 02:08:16;;;;;;;29.60;14.65;;;;;;;19.48;65.45;100812.84;5064765;27;20089;-65
2023/10/03 02:10:45;;;;;;;29.27;13.63;;;;;;;19.47;65.50;100824.81;5091747;27;20532;-64
2023/10/03 02:13:14;;;;;;;31.92;15.50;;;;;;;19.47;65.64;100821.28;5083286;27;20523;-65
2023/10/03 02:15:45;;;;;;;28.73;14.32;;;;;;;19.48;65.29;100810.09;5068793;27;20124;-65
2023/10/03 02:18:13;;;;;;;28.10;14.38;;;;;;;19.42;65.44;100802.25;5088071;27;20208;-65
2023/10/03 02:20:50;;;;;;;26.50;13.73;;;;;;;19.48;65.48;100810.09;5061799;27;20112;-65
2023/10/03 02:23:20;;;;;;;26.48;13.82;;;;;;;19.48;65.52;100796.47;5104707;27;20491;-65
2023/10/03 02:25:48;;;;;;;29.23;14.93;;;;;;;19.47;65.43;100789.38;5111680;27;20067;-65
2023/10/03 02:28:17;;;;;;;30.25;14.48;;;;;;;19.47;65.40;100778.50;5070108;27;20046;-65
2023/10/03 02:30:48;;;;;;;25.20;12.98;;;;;;;19.47;65.48;100783.13;5067424;27;20052;-65
2023/10/03 02:33:17;;;;;;;31.50;15.20;;;;;;;19.46;65.49;100809.56;5054656;28;20053;-65
2023/10/03 02:35:47;;;;;;;26.77;13.75;;;;;;;19.46;65.49;100804.13;5078679;27;20175;-65
2023/10/03 02:38:24;;;;;;;29.48;15.60;;;;;;;19.45;65.51;100794.31;5074989;27;20060;-65
2023/10/03 02:40:55;;;;;;;31.75;14.95;;;;;;;19.45;65.52;100788.84;5062780;27;20056;-65
2023/10/03 02:43:23;;;;;;;26.98;14.43;;;;;;;19.45;65.50;100799.75;5099778;27;20051;-65
2023/10/03 02:45:52;;;;;;;32.05;15.25;;;;;;;19.45;65.62;100797.03;5076969;27;20066;-65
2023/10/03 02:48:21;;;;;;;30.02;14.30;;;;;;;19.43;65.48;100793.78;5069517;27;20082;-65
2023/10/03 02:50:50;;;;;;;27.60;14.70;;;;;;;19.43;65.47;100796.50;5080320;27;20071;-65
2023/10/03 02:53:19;;;;;;;31.02;14.85;;;;;;;19.41;65.54;100806.06;5068913;27;20125;-65
2023/10/03 02:55:48;;;;;;;30.13;14.80;;;;;;;19.42;65.75;100807.69;5070524;27;20429;-65
2023/10/03 02:58:19;;;;;;;29.67;14.25;;;;;;;19.41;65.48;100800.59;5077474;27;20058;-65
2023/10/03 03:00:49;;;;;;;29.55;15.13;;;;;;;19.41;65.71;100808.78;5075214;27;20072;-65
2023/10/03 03:03:18;;;;;;;28.80;13.88;;;;;;;19.40;65.73;100810.69;5072542;27;20064;-65
2023/10/03 03:05:49;;;;;;;32.05;14.18;;;;;;;19.41;65.61;100825.13;5082183;27;20064;-65
2023/10/03 03:08:23;;;;;;;27.08;13.93;;;;;;;19.39;65.68;100822.69;5066649;27;20041;-65
2023/10/03 03:10:55;;;;;;;31.05;15.05;;;;;;;19.43;65.47;100815.59;5061523;27;20051;-65
2023/10/03 03:13:24;;;;;;;29.10;12.48;;;;;;;19.41;65.71;100816.97;5075935;27;20048;-65
2023/10/03 03:15:59;;;;;;;26.83;13.88;;;;;;;19.40;65.87;100818.06;5092602;27;20039;-65
2023/10/03 03:18:31;;;;;;;28.92;12.55;;;;;;;19.39;65.88;100825.41;5069179;27;20097;-65
2023/10/03 03:21:04;;;;;;;25.95;13.10;;;;;;;19.38;65.83;100822.97;5059801;27;20049;-65
2023/10/03 03:23:35;;;;;;;25.10;13.05;;;;;;;19.37;66.01;100813.16;5094950;27;20146;-65
2023/10/03 03:26:14;;;;;;;27.73;13.27;;;;;;;19.34;65.83;100797.38;5077974;27;20139;-65
2023/10/03 03:28:44;;;;;;;24.10;13.07;;;;;;;19.38;65.74;100806.63;5066367;27;20056;-65
2023/10/03 03:31:20;;;;;;;25.45;12.95;;;;;;;19.34;65.93;100808.28;5101613;27;20075;-65
2023/10/03 03:33:51;;;;;;;23.92;11.50;;;;;;;19.37;65.84;100818.63;5066684;27;20045;-65
2023/10/03 03:36:21;;;;;;;24.65;12.93;;;;;;;19.36;66.01;100817.00;5097233;27;20049;-65
2023/10/03 03:38:51;;;;;;;27.23;12.30;;;;;;;19.36;66.04;100812.34;5072200;27;20049;-65
2023/10/03 03:41:26;;;;;;;23.08;11.05;;;;;;;19.35;66.05;100813.44;5065199;27;20264;-65
2023/10/03 03:43:54;;;;;;;25.90;11.85;;;;;;;19.34;66.15;100809.09;5058893;27;20119;-65
2023/10/03 03:46:22;;;;;;;23.80;12.57;;;;;;;19.34;66.13;100806.38;5060432;27;20049;-66
2023/10/03 03:48:52;;;;;;;22.45;11.23;;;;;;;19.35;66.13;100805.28;5060968;27;20052;-65
2023/10/03 03:51:20;;;;;;;24.83;11.45;;;;;;;19.36;66.06;100806.91;5079998;27;20045;-65
2023/10/03 03:53:47;;;;;;;28.10;13.00;;;;;;;19.36;65.95;100806.09;5074083;27;20110;-64
2023/10/03 03:56:16;;;;;;;23.58;12.45;;;;;;;19.34;66.01;100806.38;5089218;27;20132;-65
2023/10/03 03:58:45;;;;;;;21.02;12.10;;;;;;;19.33;66.02;100815.63;5081409;27;20048;-64
2023/10/03 04:01:16;;;;;;;23.42;11.48;;;;;;;19.31;66.11;100820.56;5062243;27;20515;-65
2023/10/03 04:03:45;;;;;;;21.35;10.65;;;;;;;19.34;66.36;100828.16;5059721;27;20053;-64
2023/10/03 04:06:15;;;;;;;23.15;11.48;;;;;;;19.34;66.44;100836.34;5059769;27;20049;-64
2023/10/03 04:08:43;;;;;;;19.02;10.57;;;;;;;19.34;66.61;100830.91;5070386;27;20053;-64
2023/10/03 04:11:32;;;;;;;23.73;10.65;;;;;;;19.34;66.66;100835.53;5064403;27;20053;-65
2023/10/03 04:14:01;;;;;;;23.10;11.30;;;;;;;19.33;66.89;100833.91;5060404;27;20055;-65
2023/10/03 04:16:32;;;;;;;24.48;10.02;;;;;;;19.34;66.90;100836.34;5070094;27;20106;-64
2023/10/03 04:19:00;;;;;;;21.15;9.70;;;;;;;19.34;66.89;100841.78;5078252;27;20120;-65
2023/10/03 04:21:29;;;;;;;19.58;9.77;;;;;;;19.34;66.90;100843.72;5073271;27;20102;-64
2023/10/03 04:23:59;;;;;;;17.40;8.77;;;;;;;19.34;66.94;100839.06;5064159;27;20108;-64
2023/10/03 04:26:27;;;;;;;20.08;9.02;;;;;;;19.35;66.96;100839.88;5075051;27;20056;-65
2023/10/03 04:28:56;;;;;;;19.20;8.55;;;;;;;19.33;66.83;100856.53;5064181;27;20537;-65
2023/10/03 04:31:24;;;;;;;20.13;8.77;;;;;;;19.34;67.10;100852.69;5058132;27;20182;-64
2023/10/03 04:33:52;;;;;;;16.52;9.52;;;;;;;19.34;67.03;100855.41;5062786;27;20075;-64
2023/10/03 04:36:24;;;;;;;17.65;8.10;;;;;;;19.34;67.29;100860.06;5060111;27;20106;-64
2023/10/03 04:38:54;;;;;;;18.08;7.30;;;;;;;19.33;67.41;100858.44;5060822;27;20049;-64
2023/10/03 04:41:24;;;;;;;15.57;8.45;;;;;;;19.34;67.04;100854.59;5054841;27;20042;-64
2023/10/03 04:43:55;;;;;;;16.13;7.90;;;;;;;19.34;67.41;100857.34;5058603;27;20045;-64
2023/10/03 04:46:24;;;;;;;18.25;7.60;;;;;;;19.34;67.29;100862.78;5079516;27;20098;-66
2023/10/03 04:48:52;;;;;;;16.05;7.55;;;;;;;19.34;67.31;100860.06;5056034;27;20037;-66
2023/10/03 04:51:20;;;;;;;18.25;8.38;;;;;;;19.34;67.37;100879.94;5060115;27;20041;-65
2023/10/03 04:53:48;;;;;;;17.25;6.93;;;;;;;19.33;67.28;100891.94;5059862;27;20109;-65
2023/10/03 04:56:18;;;;;;;15.02;7.05;;;;;;;19.34;67.50;100898.22;5074786;27;20045;-68
2023/10/03 04:58:45;;;;;;;14.27;6.53;;;;;;;19.24;67.47;100879.19;5078643;27;20041;-71
2023/10/03 05:01:14;;;;;;;13.50;6.97;;;;;;;19.33;67.42;100882.97;5080685;27;20237;-66
2023/10/03 05:03:42;;;;;;;13.45;6.18;;;;;;;19.29;67.63;100877.25;5114977;27;20050;-66
2023/10/03 05:06:11;;;;;;;14.15;6.38;;;;;;;19.33;67.34;100899.31;5071774;27;20041;-66
2023/10/03 05:08:39;;;;;;;12.75;6.32;;;;;;;19.30;67.37;100894.41;5074629;27;20049;-66
2023/10/03 05:11:08;;;;;;;14.27;6.50;;;;;;;19.31;67.38;100915.13;5060763;27;20060;-66
2023/10/03 05:13:38;;;;;;;12.32;6.10;;;;;;;19.29;67.20;100930.94;5065956;27;20046;-66
2023/10/03 05:16:07;;;;;;;20.10;7.22;;;;;;;19.29;67.28;100939.94;5078984;27;20050;-66
2023/10/03 05:18:35;;;;;;;10.85;5.00;;;;;;;19.28;67.15;100960.09;5053583;27;20633;-65
2023/10/03 05:21:05;;;;;;;15.68;5.63;;;;;;;19.26;67.05;100947.84;5070693;27;20081;-68
2023/10/03 05:23:32;;;;;;;16.10;4.72;;;;;;;19.27;66.89;100942.13;5081118;27;20076;-66
2023/10/03 05:26:02;;;;;;;20.88;5.15;;;;;;;19.30;66.66;100929.84;5058825;27;20049;-65
2023/10/03 05:28:31;;;;;;;12.93;5.07;;;;;;;19.26;66.75;100923.31;5078964;27;20154;-67
2023/10/03 05:31:01;;;;;;;9.77;4.43;;;;;;;19.29;66.46;100918.13;5087032;27;20100;-67
2023/10/03 05:33:28;;;;;;;12.50;5.18;;;;;;;19.28;66.57;100932.84;5070874;27;20045;-68
2023/10/03 05:35:57;;;;;;;14.00;4.72;;;;;;;19.28;66.47;100923.84;5062480;27;20053;-69
2023/10/03 05:38:25;;;;;;;13.90;5.38;;;;;;;19.40;66.32;100918.91;5120620;27;20133;-69
2023/10/03 05:40:53;;;;;;;11.68;4.82;;;;;;;19.36;66.24;100932.28;5091220;27;20227;-65
2023/10/03 05:43:21;;;;;;;12.35;4.80;;;;;;;19.30;66.31;100927.94;4724530;27;9999874;-65
2023/10/03 05:45:51;;;;;;;10.80;4.75;;;;;;;19.26;66.29;100926.03;5058223;27;20052;-67
2023/10/03 05:48:25;;;;;;;8.05;4.32;;;;;;;19.34;66.50;100920.84;5071414;27;20052;-67
2023/10/03 05:50:55;;;;;;;9.70;5.55;;;;;;;19.31;66.20;100928.75;5061269;27;20065;-65
2023/10/03 05:53:23;;;;;;;11.65;4.38;;;;;;;19.30;66.50;100918.94;5060566;27;20048;-65
2023/10/03 05:55:51;;;;;;;11.32;4.30;;;;;;;19.30;66.59;100917.03;5068041;27;20055;-65
2023/10/03 05:58:20;;;;;;;9.45;4.63;;;;;;;19.27;66.35;100912.13;5060116;27;20068;-66
2023/10/03 06:00:47;;;;;;;18.40;4.50;;;;;;;19.30;66.62;100929.84;5061646;27;20073;-67
2023/10/03 06:03:16;;;;;;;15.13;4.95;;;;;;;19.29;66.55;100925.47;5057711;28;20093;-66
2023/10/03 06:05:46;;;;;;;12.45;4.10;;;;;;;19.26;66.79;100936.94;5055314;27;20116;-67
2023/10/03 06:08:14;;;;;;;13.23;4.60;;;;;;;19.26;66.62;100937.75;5054663;27;20137;-72
2023/10/03 06:10:42;;;;;;;11.55;5.05;;;;;;;19.36;66.50;100926.00;5058176;28;20101;-65
2023/10/03 06:13:10;;;;;;;7.93;3.97;;;;;;;19.30;66.45;100927.13;5057254;28;20057;-65
2023/10/03 06:15:41;;;;;;;10.82;4.85;;;;;;;19.28;66.41;100937.47;5060297;27;20397;-65
2023/10/03 06:18:09;;;;;;;12.40;4.10;;;;;;;19.30;66.51;100946.19;5052853;27;20052;-66
2023/10/03 06:20:38;;;;;;;13.85;4.43;;;;;;;19.27;66.73;100949.47;5056135;28;20124;-66
2023/10/03 06:23:08;;;;;;;9.80;4.68;;;;;;;19.25;66.60;100963.38;5053537;28;20099;-66
2023/10/03 06:25:36;;;;;;;13.88;5.05;;;;;;;19.26;66.70;100962.28;5082268;27;20109;-66
2023/10/03 06:28:04;;;;;;;9.27;4.25;;;;;;;19.31;66.65;100967.72;5053123;27;20053;-66
2023/10/03 06:30:33;;;;;;;7.25;4.57;;;;;;;19.28;66.65;100962.81;5050365;27;20059;-66
2023/10/03 06:33:03;;;;;;;12.32;4.70;;;;;;;19.26;66.67;100959.56;5058528;27;20132;-66
2023/10/03 06:35:32;;;;;;;9.23;5.65;;;;;;;19.25;66.70;100960.66;5055958;28;20063;-66
2023/10/03 06:38:00;;;;;;;8.07;4.25;;;;;;;19.26;66.87;100959.56;5051685;28;20524;-66
2023/10/03 06:40:29;;;;;;;9.65;4.32;;;;;;;19.26;66.83;100969.63;5063907;27;20085;-66
2023/10/03 06:42:56;;;;;;;11.82;4.18;;;;;;;19.27;66.67;100979.44;5057581;28;20049;-66
2023/10/03 06:45:24;;;;;;;11.27;4.90;;;;;;;19.25;66.67;100976.19;5055439;27;20053;-66
2023/10/03 06:47:52;;;;;;;11.00;4.28;;;;;;;19.25;66.66;100995.25;5056677;28;20090;-65
2023/10/03 06:50:23;;;;;;;8.57;4.45;;;;;;;19.23;66.90;100995.53;5050748;27;20353;-66
2023/10/03 06:52:52;;;;;;;9.43;4.22;;;;;;;19.26;66.82;100994.97;5054819;28;20044;-66
2023/10/03 06:55:19;;;;;;;7.43;3.83;;;;;;;19.23;66.93;100989.25;5057666;28;20053;-66
2023/10/03 06:57:49;;;;;;;6.85;3.72;;;;;;;19.19;66.84;100989.00;5057480;27;20053;-66
2023/10/03 07:00:22;;;;;;;7.68;3.78;;;;;;;19.37;66.38;101001.22;5053020;27;20055;-66
2023/10/03 07:02:49;;;;;;;12.07;5.30;;;;;;;19.26;66.60;101014.06;5060039;27;20520;-66
2023/10/03 07:05:18;;;;;;;10.45;5.45;;;;;;;19.24;66.83;101012.69;5086776;27;20327;-66
2023/10/03 07:07:46;;;;;;;10.48;4.72;;;;;;;19.23;66.99;101005.63;5066114;27;20110;-66
2023/10/03 07:10:13;;;;;;;10.85;4.38;;;;;;;19.22;66.99;101003.97;5056907;27;20125;-66
2023/10/03 07:12:42;;;;;;;8.85;4.40;;;;;;;19.20;67.17;101004.25;5059948;27;20077;-66
2023/10/03 07:15:12;;;;;;;10.57;5.05;;;;;;;19.19;67.18;101006.16;5057848;28;20101;-66
2023/10/03 07:17:40;;;;;;;9.77;4.97;;;;;;;19.18;67.38;101001.00;5058576;27;20049;-66
2023/10/03 07:20:10;;;;;;;10.30;4.47;;;;;;;19.14;67.15;101008.91;5055808;28;20399;-66
2023/10/03 07:22:39;;;;;;;11.77;4.72;;;;;;;19.15;67.38;100994.19;5058379;27;20052;-66
2023/10/03 07:25:08;;;;;;;11.68;4.68;;;;;;;19.16;67.49;101009.44;5049758;28;20057;-66
2023/10/03 07:27:36;;;;;;;7.65;4.25;;;;;;;19.25;67.03;101006.97;5053494;28;20057;-66
2023/10/03 07:30:05;;;;;;;7.82;4.65;;;;;;;19.24;67.09;101013.50;5059318;27;20079;-66
2023/10/03 07:32:34;;;;;;;13.48;4.93;;;;;;;19.18;67.47;101026.34;5063680;27;20060;-66
2023/10/03 07:35:03;;;;;;;9.57;5.32;;;;;;;19.16;67.52;101024.97;5051012;27;20057;-66
2023/10/03 07:37:33;;;;;;;8.13;4.28;;;;;;;19.14;67.85;101027.97;5048294;28;20415;-66
2023/10/03 07:40:02;;;;;;;9.57;4.53;;;;;;;19.14;67.78;101038.88;5049922;27;20086;-66
2023/10/03 07:42:31;;;;;;;11.43;4.55;;;;;;;19.15;67.76;101047.84;5047529;27;20049;-66
2023/10/03 07:44:59;;;;;;;10.65;4.95;;;;;;;19.11;67.68;101049.50;5056073;28;20053;-66
2023/10/03 07:47:27;;;;;;;9.27;4.22;;;;;;;19.15;67.88;101069.66;5056039;27;20109;-66
2023/10/03 07:49:59;;;;;;;8.65;4.53;;;;;;;19.15;67.90;101067.75;5055608;27;20065;-66
2023/10/03 07:52:27;;;;;;;10.45;4.43;;;;;;;19.15;67.82;101073.19;5055505;27;20057;-66
2023/10/03 07:54:56;;;;;;;10.25;4.18;;;;;;;19.12;68.26;101078.38;5054207;28;20073;-66
2023/10/03 07:57:25;;;;;;;11.15;5.53;;;;;;;19.14;68.22;101079.75;5045656;27;20059;-66
2023/10/03 07:59:53;;;;;;;7.78;4.18;;;;;;;19.16;67.91;101060.41;5056437;28;20079;-66
2023/10/03 08:02:26;;;;;;;10.05;4.53;;;;;;;19.15;67.83;101069.66;5059452;27;20067;-66
2023/10/03 08:05:00;;;;;;;11.57;4.38;;;;;;;19.14;67.90;101085.19;5061740;27;20053;-66
2023/10/03 08:07:28;;;;;;;9.55;4.47;;;;;;;19.21;67.72;101075.91;5049468;28;20434;-67
2023/10/03 08:09:56;;;;;;;9.07;4.63;;;;;;;19.17;67.77;101101.00;5055948;27;20055;-66
2023/10/03 08:12:31;;;;;;;9.18;4.85;;;;;;;19.16;68.15;101104.00;5056612;28;20061;-67
2023/10/03 08:14:59;;;;;;;14.55;4.35;;;;;;;19.15;68.04;101089.53;5058827;27;20045;-66
2023/10/03 08:17:31;;;;;;;9.30;4.45;;;;;;;19.14;68.04;101076.19;5054461;28;20059;-66
2023/10/03 08:20:05;;;;;;;12.82;4.65;;;;;;;19.14;68.04;101111.63;5047628;28;20056;-66
2023/10/03 08:22:33;;;;;;;8.38;4.70;;;;;;;19.14;68.17;101120.59;5050931;28;20049;-66
2023/10/03 08:25:05;;;;;;;9.13;4.47;;;;;;;19.14;68.18;101128.78;5043522;28;20384;-66
2023/10/03 08:27:33;;;;;;;9.70;4.28;;;;;;;19.14;68.03;101133.41;5045398;28;20120;-67
2023/10/03 08:30:03;;;;;;;12.50;4.03;;;;;;;19.11;68.07;101136.69;5051926;28;20052;-66
2023/10/03 08:32:31;;;;;;;8.15;4.05;;;;;;;19.13;68.34;101151.66;5091132;27;20098;-66
2023/10/03 08:35:00;;;;;;;10.20;4.35;;;;;;;19.11;68.06;101156.56;5086853;27;20068;-66
2023/10/03 08:37:28;;;;;;;6.18;3.45;;;;;;;19.10;68.02;101146.75;5086009;28;20052;-66
2023/10/03 08:39:56;;;;;;;10.80;4.00;;;;;;;19.09;68.15;101156.03;5056484;28;20049;-66
2023/10/03 08:42:34;;;;;;;9.07;3.25;;;;;;;18.98;67.81;101143.50;5057198;28;20113;-66
2023/10/03 08:45:16;;;;;;;9.23;3.75;;;;;;;19.09;67.90;101160.66;5054919;27;20052;-66
2023/10/03 08:47:48;;;;;;;9.23;3.60;;;;;;;19.11;67.71;101172.09;5055936;28;20568;-66
2023/10/03 08:50:33;;;;;;;9.73;3.20;;;;;;;19.10;67.23;101179.47;5057087;27;20061;-66
2023/10/03 08:53:15;;;;;;;5.28;2.60;;;;;;;19.11;67.30;101174.81;5052945;27;20048;-66
2023/10/03 08:55:45;;;;;;;6.18;2.83;;;;;;;19.04;67.50;101193.38;5065721;27;20155;-66
2023/10/03 08:58:18;;;;;;;5.63;2.53;;;;;;;19.05;67.49;101203.19;5059833;28;20063;-66
2023/10/03 09:00:49;;;;;;;9.73;2.80;;;;;;;18.97;67.33;101190.09;5060264;27;20064;-66
2023/10/03 09:03:19;;;;;;;6.82;2.45;;;;;;;19.02;67.40;101192.81;5061996;27;20407;-66
2023/10/03 09:05:49;;;;;;;6.15;2.78;;;;;;;19.01;67.17;101211.06;5053711;27;20052;-66
2023/10/03 09:08:17;;;;;;;7.05;2.50;;;;;;;19.01;67.29;101216.53;5053798;27;20057;-66
2023/10/03 09:10:52;;;;;;;10.10;2.70;;;;;;;19.01;67.09;101223.88;5059604;28;20053;-65
2023/10/03 09:13:26;;;;;;;4.10;1.92;;;;;;;19.00;67.18;101238.59;5059928;27;20053;-65
2023/10/03 09:16:06;;;;;;;7.88;1.90;;;;;;;18.99;67.00;101239.66;5064953;27;20053;-65
2023/10/03 09:18:40;;;;;;;6.35;2.15;;;;;;;18.99;66.93;101258.75;5060753;27;20061;-65
2023/10/03 09:21:15;;;;;;;3.90;1.63;;;;;;;18.94;66.66;101264.16;5049431;28;20045;-65
2023/10/03 09:24:01;;;;;;;3.17;1.65;;;;;;;18.90;66.21;101269.34;5057854;28;20045;-65
2023/10/03 09:26:45;;;;;;;2.97;1.25;;;;;;;18.84;65.78;101275.84;5060548;27;20082;-65
2023/10/03 09:29:18;;;;;;;4.72;1.70;;;;;;;18.87;65.48;101291.66;5051394;27;20128;-65
2023/10/03 09:31:48;;;;;;;2.85;1.00;;;;;;;18.82;65.55;101287.00;5058418;28;20074;-65
2023/10/03 09:34:16;;;;;;;4.25;1.30;;;;;;;18.85;65.54;101291.09;5062317;27;20097;-65
2023/10/03 09:36:48;;;;;;;3.97;1.30;;;;;;;18.84;65.50;101297.63;5054554;27;20077;-65
2023/10/03 09:39:21;;;;;;;4.88;1.50;;;;;;;18.77;65.29;101286.16;5057164;28;20070;-65
2023/10/03 09:41:55;;;;;;;4.60;0.95;;;;;;;18.87;65.37;101293.56;5061649;27;20049;-65
2023/10/03 09:44:29;;;;;;;2.95;0.98;;;;;;;18.85;65.53;101294.63;5055653;27;20045;-65
2023/10/03 09:47:04;;;;;;;2.47;1.20;;;;;;;18.84;65.33;101306.63;5054283;27;20067;-65
2023/10/03 09:49:36;;;;;;;2.88;1.38;;;;;;;18.78;65.39;101296.78;5064357;27;20462;-65
2023/10/03 09:52:09;;;;;;;4.43;1.33;;;;;;;18.83;65.45;101312.34;5057013;27;20464;-65
2023/10/03 09:54:37;;;;;;;4.90;1.30;;;;;;;18.83;65.38;101313.16;5057595;28;20064;-66
2023/10/03 09:57:17;;;;;;;4.50;1.20;;;;;;;18.84;65.53;101306.63;5058624;28;20057;-66
2023/10/03 09:59:46;;;;;;;3.83;1.27;;;;;;;18.83;65.39;101315.88;5056208;27;20064;-66
2023/10/03 10:02:15;;;;;;;2.22;1.00;;;;;;;18.81;65.27;101326.22;5058256;28;20490;-66
2023/10/03 10:04:46;;;;;;;4.60;1.35;;;;;;;18.82;65.22;101329.75;5050663;28;20163;-66
2023/10/03 10:07:29;;;;;;;3.08;1.45;;;;;;;18.83;65.54;101337.66;5051445;27;20057;-66
2023/10/03 10:10:07;;;;;;;3.25;1.23;;;;;;;18.83;65.29;101325.94;5063353;27;20056;-66
2023/10/03 10:12:42;;;;;;;2.95;1.15;;;;;;;18.75;65.54;101310.94;5060932;27;20057;-66
2023/10/03 10:15:26;;;;;;;4.20;1.25;;;;;;;18.82;65.41;101337.94;5058866;28;20044;-66
2023/10/03 10:17:56;;;;;;;4.78;1.05;;;;;;;18.75;65.33;101348.25;5053684;27;20155;-66
2023/10/03 10:20:37;;;;;;;6.00;1.38;;;;;;;18.81;65.39;101366.25;5055801;27;20106;-66
2023/10/03 10:23:22;;;;;;;4.63;1.05;;;;;;;18.82;65.18;101378.78;5057005;28;20049;-65
2023/10/03 10:25:56;;;;;;;3.15;1.20;;;;;;;18.81;65.22;101369.78;5052354;28;20118;-66
2023/10/03 10:28:31;;;;;;;3.70;1.33;;;;;;;18.76;65.23;101377.94;5077795;27;20512;-66
2023/10/03 10:31:22;;;;;;;6.22;1.42;;;;;;;18.77;64.72;101397.81;5061813;27;20068;-66
2023/10/03 10:34:11;;;;;;;3.15;1.10;;;;;;;18.76;64.89;101399.72;5057437;27;20068;-65
2023/10/03 10:40:21;;;;;;;4.17;1.20;;;;;;;18.75;64.98;101395.34;5183990;27;20400;-66
2023/10/03 10:43:04;;;;;;;3.95;0.98;;;;;;;18.78;65.02;101416.59;5158466;27;20289;-66
2023/10/03 10:45:38;;;;;;;3.60;1.13;;;;;;;18.76;64.64;101405.16;5165141;27;20145;-66
2023/10/03 10:48:08;;;;;;;1.63;0.90;;;;;;;18.74;64.65;101420.13;5158678;27;20035;-66
2023/10/03 10:51:12;;;;;;;5.63;1.00;;;;;;;18.69;64.48;101401.84;5165611;27;20661;-66
2023/10/03 10:53:46;;;;;;;4.05;1.30;;;;;;;18.76;64.65;101423.41;5153327;27;20146;-66
2023/10/03 10:56:16;;;;;;;1.95;1.00;;;;;;;18.73;64.72;101422.03;5166112;27;20050;-66
2023/10/03 10:58:52;;;;;;;3.28;1.25;;;;;;;18.71;64.75;101443.25;5159159;27;20058;-66
2023/10/03 11:01:21;;;;;;;3.43;1.03;;;;;;;18.71;64.87;101442.44;5164694;27;20043;-66
2023/10/03 11:03:49;;;;;;;3.22;1.00;;;;;;;18.70;65.29;101443.50;5157108;27;20340;-66
2023/10/03 11:06:19;;;;;;;2.28;1.10;;;;;;;18.69;65.59;101447.31;5164401;27;20057;-66
2023/10/03 11:08:48;;;;;;;1.83;0.80;;;;;;;18.67;65.70;101449.47;5165109;27;20063;-66
2023/10/03 11:11:19;;;;;;;2.45;1.20;;;;;;;18.63;65.84;101443.72;5158383;27;20042;-66
2023/10/03 11:13:49;;;;;;;2.38;0.82;;;;;;;18.67;65.99;101457.66;5163694;27;20069;-66
2023/10/03 11:16:25;;;;;;;1.98;0.80;;;;;;;18.60;66.44;101446.13;5160756;27;20054;-66
2023/10/03 11:18:54;;;;;;;3.27;0.90;;;;;;;18.59;66.46;101444.47;5162414;27;20085;-65
2023/10/03 11:21:23;;;;;;;2.30;1.17;;;;;;;18.63;66.74;101460.06;5161131;27;20079;-66
2023/10/03 11:24:14;;;;;;;3.22;1.40;;;;;;;18.62;66.82;101457.59;5160439;27;20057;-67
2023/10/03 11:26:45;;;;;;;1.88;0.90;;;;;;;18.62;66.95;101450.25;5151888;27;20051;-66
2023/10/03 11:29:14;;;;;;;2.85;0.95;;;;;;;18.61;66.75;101458.69;5157407;27;20046;-67
2023/10/03 11:31:44;;;;;;;2.33;1.33;;;;;;;18.58;67.13;101454.56;5154785;27;20477;-67
2023/10/03 11:34:13;;;;;;;5.28;1.00;;;;;;;18.60;67.02;101466.00;5167476;27;20403;-67
2023/10/03 11:36:43;;;;;;;4.07;0.95;;;;;;;18.51;65.98;101467.56;5159552;27;20297;-67